Time;durP1;ratioP1;P1;durP2;ratioP2;P2;SDS_P1;SDS_P2;PMS_P1;PMS_P2;Temp;Humidity;BMP_temperature;BMP_pressure;BME280_temperature;BME280_humidity;BME280_pressure;Samples;Min_cycle;Max_cycle;Signal;HPM_P1;HPM_P2
2021/04/07 00:00:17;;;;;;;5.03;1.02;;;5.70;50.10;;;;;;5072538;28;20021;-78
2021/04/07 00:02:43;;;;;;;3.97;0.80;;;5.70;51.70;;;;;;5072787;28;20032;-78
2021/04/07 00:05:19;;;;;;;4.57;1.15;;;5.70;50.00;;;;;;5069747;28;20020;-79
2021/04/07 00:07:45;;;;;;;5.43;1.23;;;5.80;50.80;;;;;;5061178;28;20017;-79
2021/04/07 00:10:14;;;;;;;7.22;1.58;;;5.80;50.70;;;;;;5071764;28;20036;-78
2021/04/07 00:12:40;;;;;;;4.80;1.00;;;5.80;52.00;;;;;;5069185;28;20550;-78
2021/04/07 00:15:13;;;;;;;2.13;0.70;;;5.70;50.40;;;;;;5068063;28;20029;-78
2021/04/07 00:17:38;;;;;;;3.20;1.00;;;5.60;49.60;;;;;;5052645;28;20056;-78
2021/04/07 00:20:10;;;;;;;5.85;0.98;;;5.70;50.20;;;;;;5069644;28;20469;-78
2021/04/07 00:22:36;;;;;;;2.80;1.27;;;5.80;51.20;;;;;;5051391;28;20488;-79
2021/04/07 00:25:03;;;;;;;3.03;0.73;;;5.60;50.90;;;;;;5058311;28;20036;-79
2021/04/07 00:27:28;;;;;;;2.20;1.00;;;5.60;52.40;;;;;;5064175;28;20060;-78
2021/04/07 00:29:54;;;;;;;4.70;1.20;;;5.60;51.40;;;;;;5069674;28;20032;-78
2021/04/07 00:32:20;;;;;;;2.10;0.80;;;5.50;51.20;;;;;;5052861;28;20036;-78
2021/04/07 00:34:46;;;;;;;5.57;1.45;;;5.50;51.20;;;;;;5066928;28;20407;-78
2021/04/07 00:37:11;;;;;;;3.67;1.00;;;5.60;51.70;;;;;;5071704;28;20047;-78
2021/04/07 00:39:37;;;;;;;4.13;1.23;;;5.70;51.50;;;;;;5071911;28;20047;-78
2021/04/07 00:42:05;;;;;;;3.47;0.90;;;5.60;51.40;;;;;;5071655;28;20033;-78
2021/04/07 00:44:32;;;;;;;2.42;1.23;;;5.50;50.50;;;;;;5072411;28;20035;-78
2021/04/07 00:46:58;;;;;;;3.60;1.35;;;5.40;50.60;;;;;;5071096;28;20036;-78
2021/04/07 00:49:25;;;;;;;4.07;1.30;;;5.50;52.30;;;;;;5071865;28;20024;-78
2021/04/07 00:51:52;;;;;;;3.33;1.08;;;5.40;51.40;;;;;;5069878;28;20103;-78
2021/04/07 00:54:19;;;;;;;3.97;0.80;;;5.50;52.10;;;;;;5072054;28;20032;-78
2021/04/07 00:56:45;;;;;;;3.80;1.20;;;5.50;52.20;;;;;;5071394;28;20036;-78
2021/04/07 00:59:15;;;;;;;3.47;1.23;;;5.60;52.50;;;;;;5063785;28;20021;-78
2021/04/07 01:01:42;;;;;;;3.75;1.00;;;5.50;51.90;;;;;;5052301;28;20100;-78
2021/04/07 01:04:09;;;;;;;2.83;0.73;;;5.40;51.50;;;;;;5066137;28;20024;-78
2021/04/07 01:06:36;;;;;;;3.92;1.08;;;5.30;51.40;;;;;;5071650;28;20488;-78
2021/04/07 01:09:03;;;;;;;4.70;1.08;;;5.40;52.50;;;;;;5072117;28;20051;-78
2021/04/07 01:11:28;;;;;;;2.95;1.25;;;5.30;50.70;;;;;;5070134;28;20048;-78
2021/04/07 01:13:54;;;;;;;2.78;1.08;;;5.10;52.10;;;;;;5070997;28;20063;-78
2021/04/07 01:16:21;;;;;;;4.28;1.08;;;5.10;54.10;;;;;;5072975;28;20393;-78
2021/04/07 01:18:47;;;;;;;4.47;1.08;;;5.10;53.20;;;;;;5074608;28;20051;-78
2021/04/07 01:21:13;;;;;;;3.63;1.13;;;5.00;52.90;;;;;;5075260;28;20016;-78
2021/04/07 01:23:44;;;;;;;4.35;1.45;;;4.90;52.50;;;;;;5062967;28;20388;-78
2021/04/07 01:26:10;;;;;;;4.43;1.15;;;5.00;53.00;;;;;;5071578;28;20044;-78
2021/04/07 01:28:36;;;;;;;3.55;1.25;;;5.10;52.70;;;;;;5067363;28;20035;-78
2021/04/07 01:31:02;;;;;;;2.95;1.23;;;5.10;52.90;;;;;;5058573;28;20500;-78
2021/04/07 01:33:27;;;;;;;3.92;1.05;;;5.10;53.40;;;;;;5073951;28;20082;-78
2021/04/07 01:35:53;;;;;;;5.05;1.55;;;5.10;53.40;;;;;;5075235;28;20099;-78
2021/04/07 01:38:20;;;;;;;2.72;0.80;;;5.10;53.20;;;;;;5064312;28;20076;-78
2021/04/07 01:40:47;;;;;;;1.40;0.90;;;4.90;52.60;;;;;;5055606;28;20104;-78
2021/04/07 01:43:16;;;;;;;2.83;1.17;;;4.80;52.50;;;;;;5059050;28;20100;-78
2021/04/07 01:45:46;;;;;;;3.03;0.90;;;4.80;52.80;;;;;;5075517;28;20115;-78
2021/04/07 01:48:16;;;;;;;;;;;4.90;53.90;;;;;;5074746;28;20067;-78
2021/04/07 01:50:42;;;;;;;2.13;0.95;;;4.80;53.40;;;;;;5073632;28;19908;-78
2021/04/07 01:53:09;;;;;;;3.42;1.23;;;4.80;55.00;;;;;;5075456;28;20060;-78
2021/04/07 01:55:35;;;;;;;3.35;1.30;;;4.80;53.50;;;;;;5072008;28;20048;-78
2021/04/07 01:58:02;;;;;;;4.40;0.98;;;4.70;51.70;;;;;;5059565;28;20067;-78
2021/04/07 02:00:28;;;;;;;2.47;1.20;;;4.40;51.70;;;;;;5057777;28;20024;-78
2021/04/07 02:02:54;;;;;;;1.85;0.68;;;4.50;52.30;;;;;;5069515;28;20040;-78
2021/04/07 02:05:20;;;;;;;2.97;1.20;;;4.50;51.90;;;;;;5074823;28;20502;-78
2021/04/07 02:07:46;;;;;;;4.75;1.85;;;4.50;52.10;;;;;;5074473;28;20036;-78
2021/04/07 02:10:12;;;;;;;5.22;1.30;;;4.50;52.40;;;;;;5075011;28;20024;-78
2021/04/07 02:12:38;;;;;;;6.50;1.20;;;4.50;52.30;;;;;;5075331;28;20353;-78
2021/04/07 02:15:12;;;;;;;2.42;1.20;;;4.60;52.50;;;;;;5074639;28;20039;-78
2021/04/07 02:17:38;;;;;;;3.38;1.35;;;4.60;53.10;;;;;;5074251;28;20484;-78
2021/04/07 02:20:05;;;;;;;1.95;1.02;;;4.50;53.00;;;;;;5073398;28;20056;-78
2021/04/07 02:22:31;;;;;;;4.90;1.20;;;4.40;54.40;;;;;;5074719;28;20447;-78
2021/04/07 02:24:57;;;;;;;3.60;2.00;;;4.40;53.10;;;;;;5074069;28;20156;-78
2021/04/07 02:27:24;;;;;;;3.30;1.17;;;4.50;55.50;;;;;;5073328;28;20048;-78
2021/04/07 02:29:55;;;;;;;2.42;0.73;;;4.50;54.20;;;;;;5073745;28;20085;-78
2021/04/07 02:32:21;;;;;;;;;;;4.50;55.80;;;;;;5073519;28;20116;-78
2021/04/07 02:34:46;;;;;;;3.45;1.00;;;4.50;55.20;;;;;;5074334;28;19952;-78
2021/04/07 02:37:14;;;;;;;6.22;1.00;;;4.50;56.20;;;;;;5074351;28;20047;-78
2021/04/07 02:39:41;;;;;;;4.43;1.00;;;4.60;57.40;;;;;;5069379;28;20021;-78
2021/04/07 02:42:07;;;;;;;2.20;1.00;;;4.60;57.10;;;;;;5074242;28;20020;-78
2021/04/07 02:44:34;;;;;;;6.28;1.27;;;4.60;57.80;;;;;;5072567;28;20032;-78
2021/04/07 02:47:00;;;;;;;3.50;1.20;;;4.70;57.90;;;;;;5070892;28;20063;-78
2021/04/07 02:49:25;;;;;;;3.55;0.85;;;4.70;58.10;;;;;;5065377;28;20057;-78
2021/04/07 02:51:52;;;;;;;3.65;1.17;;;4.70;57.30;;;;;;5057459;28;20024;-78
2021/04/07 02:54:18;;;;;;;5.88;1.17;;;4.70;57.80;;;;;;5073949;28;20090;-78
2021/04/07 02:56:44;;;;;;;2.80;0.73;;;4.70;56.90;;;;;;5066762;28;20555;-78
2021/04/07 02:59:09;;;;;;;5.10;1.20;;;4.60;57.30;;;;;;5073416;28;20028;-78
2021/04/07 03:01:35;;;;;;;2.10;0.73;;;4.70;58.30;;;;;;5072566;28;20103;-78
2021/04/07 03:04:01;;;;;;;2.13;1.20;;;4.60;58.20;;;;;;5069680;28;20111;-78
2021/04/07 03:06:27;;;;;;;3.58;1.10;;;4.50;59.10;;;;;;5073923;28;20020;-78
2021/04/07 03:08:53;;;;;;;3.13;1.10;;;4.60;60.00;;;;;;5059904;28;20033;-78
2021/04/07 03:11:18;;;;;;;3.40;1.00;;;4.70;58.40;;;;;;5062705;28;20029;-78
2021/04/07 03:13:44;;;;;;;2.75;0.90;;;4.60;57.80;;;;;;5073186;28;20036;-78
2021/04/07 03:16:10;;;;;;;3.85;1.20;;;4.60;59.60;;;;;;5072495;28;20109;-78
2021/04/07 03:18:36;;;;;;;4.32;0.90;;;4.70;59.80;;;;;;5071801;28;20111;-78
2021/04/07 03:21:02;;;;;;;2.75;1.15;;;4.60;59.60;;;;;;5072011;28;20079;-78
2021/04/07 03:23:28;;;;;;;3.33;1.33;;;4.40;60.60;;;;;;5071755;28;20496;-78
2021/04/07 03:25:54;;;;;;;2.38;0.93;;;4.30;60.50;;;;;;5058893;28;20049;-78
2021/04/07 03:28:20;;;;;;;3.80;1.10;;;4.40;60.40;;;;;;5063960;28;20035;-78
2021/04/07 03:30:51;;;;;;;3.78;1.77;;;4.30;60.30;;;;;;5071403;28;20361;-78
2021/04/07 03:33:29;;;;;;;2.85;1.10;;;4.30;60.70;;;;;;5073087;28;20033;-78
2021/04/07 03:35:56;;;;;;;5.10;1.42;;;4.30;60.50;;;;;;5072053;28;20024;-78
2021/04/07 03:38:22;;;;;;;4.53;1.00;;;4.50;63.90;;;;;;5073178;28;20031;-78
2021/04/07 03:40:48;;;;;;;3.75;1.58;;;4.50;63.90;;;;;;5072025;28;20029;-78
2021/04/07 03:43:20;;;;;;;4.95;1.25;;;4.50;63.60;;;;;;5073094;28;20020;-78
2021/04/07 03:45:47;;;;;;;2.13;0.82;;;4.60;63.10;;;;;;5070184;28;20496;-78
2021/04/07 03:48:16;;;;;;;1.02;0.68;;;4.60;63.70;;;;;;5068763;28;20129;-78
2021/04/07 03:50:43;;;;;;;4.53;1.70;;;4.50;62.80;;;;;;5072845;28;20127;-77
2021/04/07 03:53:10;;;;;;;5.07;1.02;;;4.40;63.30;;;;;;5071080;28;20028;-78
2021/04/07 03:55:37;;;;;;;3.13;1.10;;;4.40;61.50;;;;;;5065461;28;20069;-78
2021/04/07 03:58:03;;;;;;;3.42;1.45;;;4.30;62.80;;;;;;5061000;28;20032;-78
2021/04/07 04:00:29;;;;;;;3.55;1.05;;;4.10;62.70;;;;;;5070875;28;20024;-78
2021/04/07 04:02:55;;;;;;;3.40;1.10;;;4.00;62.60;;;;;;5054757;28;20433;-77
2021/04/07 04:05:21;;;;;;;4.13;0.98;;;4.00;61.30;;;;;;5064002;28;20111;-78
2021/04/07 04:07:47;;;;;;;3.88;1.20;;;4.00;61.80;;;;;;5069718;28;20100;-78
2021/04/07 04:10:14;;;;;;;4.80;1.42;;;4.30;60.70;;;;;;5065043;28;20136;-78
2021/04/07 04:12:40;;;;;;;4.20;1.00;;;4.20;61.00;;;;;;5054037;28;20017;-78
2021/04/07 04:15:11;;;;;;;4.13;1.15;;;4.30;60.70;;;;;;5055425;28;20435;-77
2021/04/07 04:17:37;;;;;;;2.67;0.88;;;4.30;60.60;;;;;;5065155;28;20024;-77
2021/04/07 04:20:05;;;;;;;3.38;1.08;;;4.20;61.30;;;;;;5055562;28;20341;-78
2021/04/07 04:22:32;;;;;;;2.85;0.82;;;4.20;61.30;;;;;;5070713;28;20484;-78
2021/04/07 04:24:57;;;;;;;3.40;1.10;;;4.20;61.20;;;;;;5070049;28;20013;-78
2021/04/07 04:27:23;;;;;;;6.57;1.20;;;4.30;60.70;;;;;;5069789;28;20524;-78
2021/04/07 04:29:49;;;;;;;5.90;1.23;;;4.30;60.70;;;;;;5072428;28;20507;-78
2021/04/07 04:32:15;;;;;;;2.88;1.63;;;4.40;61.70;;;;;;5070012;28;20032;-78
2021/04/07 04:34:40;;;;;;;3.92;1.08;;;4.30;62.80;;;;;;5072645;28;20074;-78
2021/04/07 04:37:06;;;;;;;3.47;1.10;;;4.30;63.20;;;;;;5071594;28;20020;-78
2021/04/07 04:39:32;;;;;;;2.38;0.90;;;4.20;63.60;;;;;;5072342;28;20071;-78
2021/04/07 04:41:58;;;;;;;3.17;1.00;;;4.10;63.70;;;;;;5069213;28;20138;-78
2021/04/07 04:44:24;;;;;;;3.90;1.55;;;4.20;64.70;;;;;;5072516;28;20024;-78
2021/04/07 04:46:49;;;;;;;3.35;1.08;;;4.30;66.90;;;;;;5072334;28;20021;-78
2021/04/07 04:49:15;;;;;;;3.72;1.50;;;4.30;66.60;;;;;;5072205;28;20025;-78
2021/04/07 04:51:41;;;;;;;4.22;1.20;;;4.20;67.80;;;;;;5071288;28;20082;-78
2021/04/07 04:54:07;;;;;;;3.10;0.80;;;4.20;66.70;;;;;;5072115;28;20473;-78
2021/04/07 04:56:33;;;;;;;3.50;0.98;;;4.20;66.00;;;;;;5071927;28;20496;-78
2021/04/07 04:58:59;;;;;;;4.10;1.58;;;4.10;65.20;;;;;;5072083;28;20032;-78
2021/04/07 05:01:24;;;;;;;4.47;2.17;;;4.10;64.80;;;;;;5071333;28;20020;-77
2021/04/07 05:03:50;;;;;;;4.25;0.70;;;4.00;64.50;;;;;;5072141;28;20039;-78
2021/04/07 05:06:16;;;;;;;1.35;0.80;;;4.00;68.20;;;;;;5070657;28;20543;-78
2021/04/07 05:08:46;;;;;;;2.45;1.25;;;4.00;67.00;;;;;;5071018;28;20048;-78
2021/04/07 05:11:11;;;;;;;2.60;0.88;;;4.10;66.70;;;;;;5069458;28;20025;-78
2021/04/07 05:13:37;;;;;;;3.65;1.15;;;4.00;64.70;;;;;;5071943;28;20040;-78
2021/04/07 05:16:03;;;;;;;5.25;1.30;;;4.00;66.40;;;;;;5071991;28;20031;-78
2021/04/07 05:18:29;;;;;;;5.35;1.30;;;4.00;66.30;;;;;;5071995;28;20467;-78
2021/04/07 05:20:55;;;;;;;3.67;1.23;;;3.90;65.90;;;;;;5058205;28;20082;-78
2021/04/07 05:23:20;;;;;;;4.15;1.30;;;4.00;64.70;;;;;;5082771;28;20029;-78
2021/04/07 05:25:46;;;;;;;3.13;1.15;;;3.90;65.40;;;;;;5067382;28;20036;-78
2021/04/07 05:28:12;;;;;;;3.03;1.10;;;3.90;67.10;;;;;;5062528;28;20483;-78
2021/04/07 05:33:23;;;;;;;6.38;0.95;;;4.00;67.40;;;;;;5061476;28;20036;-78
2021/04/07 05:35:49;;;;;;;3.15;1.25;;;3.90;66.70;;;;;;5062913;28;20438;-78
2021/04/07 05:38:17;;;;;;;1.77;1.23;;;4.00;68.80;;;;;;5061669;28;20029;-78
2021/04/07 05:40:43;;;;;;;6.22;1.48;;;3.90;69.60;;;;;;5059382;28;20056;-79
2021/04/07 05:43:09;;;;;;;5.60;3.88;;;3.90;70.00;;;;;;5064050;28;20397;-77
2021/04/07 05:45:39;;;;;;;7.68;2.08;;;3.90;67.90;;;;;;5062545;28;20111;-78
2021/04/07 05:48:08;;;;;;;2.50;1.50;;;3.90;67.80;;;;;;5070420;28;20036;-78
2021/04/07 05:50:38;;;;;;;7.05;1.45;;;3.90;69.00;;;;;;5066798;28;20582;-78
2021/04/07 05:53:05;;;;;;;7.18;2.80;;;4.10;70.90;;;;;;5066457;28;20024;-78
2021/04/07 05:55:31;;;;;;;5.60;1.48;;;4.10;71.50;;;;;;5062897;28;20377;-78
2021/04/07 05:58:05;;;;;;;6.80;1.35;;;4.10;74.50;;;;;;5059599;28;20739;-77
2021/04/07 06:00:31;;;;;;;3.70;1.30;;;4.10;76.10;;;;;;5066934;28;20027;-77
2021/04/07 06:02:58;;;;;;;5.30;1.33;;;4.20;75.90;;;;;;5059557;28;20025;-77
2021/04/07 06:05:27;;;;;;;5.80;1.70;;;4.30;74.20;;;;;;5071633;28;20021;-76
2021/04/07 06:07:57;;;;;;;4.47;1.75;;;4.30;72.30;;;;;;5061722;28;20056;-76
2021/04/07 06:10:27;;;;;;;2.22;1.10;;;4.30;71.50;;;;;;5064656;28;20024;-76
2021/04/07 06:12:53;;;;;;;;;;;4.30;72.50;;;;;;5070648;28;20025;-76
2021/04/07 06:15:20;;;;;;;3.25;1.15;;;4.50;71.20;;;;;;5054834;28;19911;-76
2021/04/07 06:18:02;;;;;;;3.50;1.27;;;4.40;68.00;;;;;;5067584;28;20059;-76
2021/04/07 06:20:40;;;;;;;4.70;2.45;;;4.50;70.50;;;;;;5063878;28;20028;-76
2021/04/07 06:23:08;;;;;;;4.45;2.08;;;4.60;77.50;;;;;;5061405;28;20029;-77
2021/04/07 06:25:34;;;;;;;42.97;3.28;;;4.60;75.80;;;;;;5071355;28;20540;-76
2021/04/07 06:28:02;;;;;;;7.65;2.28;;;4.50;76.50;;;;;;5061305;28;20062;-76
2021/04/07 06:30:45;;;;;;;4.18;1.90;;;4.50;74.90;;;;;;5072729;28;20036;-76
2021/04/07 06:33:19;;;;;;;2.65;1.58;;;4.50;75.60;;;;;;5064788;28;20507;-77
2021/04/07 06:35:59;;;;;;;7.95;1.45;;;4.50;75.50;;;;;;5071860;28;20477;-76
2021/04/07 06:38:26;;;;;;;4.40;2.00;;;4.70;72.90;;;;;;5064333;28;20029;-76
2021/04/07 06:40:53;;;;;;;2.83;1.63;;;4.90;67.30;;;;;;5065980;28;20057;-76
2021/04/07 06:43:25;;;;;;;6.00;1.15;;;5.00;65.60;;;;;;5069525;28;20017;-76
2021/04/07 06:45:52;;;;;;;5.03;1.50;;;4.90;61.40;;;;;;5072814;28;20020;-76
2021/04/07 06:48:20;;;;;;;5.05;1.40;;;4.80;62.40;;;;;;5070796;28;20081;-76
2021/04/07 06:50:48;;;;;;;2.60;1.50;;;4.90;55.50;;;;;;5068200;28;20040;-76
2021/04/07 06:53:15;;;;;;;1.58;1.15;;;5.00;52.60;;;;;;5062766;28;20483;-76
2021/04/07 06:55:41;;;;;;;4.93;1.40;;;5.00;52.40;;;;;;5063143;28;20561;-76
2021/04/07 06:58:08;;;;;;;2.70;1.08;;;5.20;56.60;;;;;;5065456;28;20108;-76
2021/04/07 07:00:39;;;;;;;4.93;1.70;;;5.10;53.90;;;;;;5064447;28;20021;-76
2021/04/07 07:03:16;;;;;;;2.85;1.25;;;5.30;56.70;;;;;;5059255;28;20033;-77
2021/04/07 07:05:50;;;;;;;8.73;1.98;;;5.40;54.60;;;;;;5068016;28;20023;-75
2021/04/07 07:08:18;;;;;;;7.82;2.00;;;5.50;55.80;;;;;;5059696;28;20043;-75
2021/04/07 07:10:50;;;;;;;7.68;2.05;;;5.40;52.20;;;;;;5070649;28;20476;-75
2021/04/07 07:13:35;;;;;;;4.07;1.38;;;5.10;53.60;;;;;;5053333;28;20025;-75
2021/04/07 07:16:04;;;;;;;5.85;1.55;;;5.00;51.60;;;;;;5066802;28;20033;-75
2021/04/07 07:18:30;;;;;;;3.33;1.92;;;5.10;52.00;;;;;;5066099;28;20028;-75
2021/04/07 07:21:00;;;;;;;4.63;1.58;;;5.10;54.00;;;;;;5063135;28;20111;-74
2021/04/07 07:23:30;;;;;;;2.33;1.33;;;4.90;52.30;;;;;;5071390;28;20021;-75
2021/04/07 07:26:12;;;;;;;10.40;1.50;;;5.00;51.90;;;;;;5056987;28;20033;-75
2021/04/07 07:29:01;;;;;;;3.28;1.38;;;5.00;54.10;;;;;;5067919;28;20048;-74
2021/04/07 07:31:32;;;;;;;4.90;1.52;;;4.90;52.00;;;;;;5065217;28;20052;-75
2021/04/07 07:34:00;;;;;;;4.03;1.55;;;5.10;52.30;;;;;;5070540;28;20029;-75
2021/04/07 07:36:28;;;;;;;32.85;3.35;;;5.50;56.00;;;;;;5059947;28;20025;-75
2021/04/07 07:38:58;;;;;;;6.05;1.92;;;5.50;53.20;;;;;;5065082;28;21474;-75
2021/04/07 07:41:35;;;;;;;6.13;1.77;;;5.40;53.60;;;;;;5062684;28;20389;-74
2021/04/07 07:44:03;;;;;;;4.45;1.80;;;5.40;52.90;;;;;;5066788;28;20538;-75
2021/04/07 07:46:31;;;;;;;2.60;1.45;;;5.50;53.90;;;;;;5060078;28;20492;-75
2021/04/07 07:49:02;;;;;;;6.57;1.70;;;5.70;52.70;;;;;;5069624;28;20075;-74
2021/04/07 07:51:32;;;;;;;5.47;1.70;;;5.90;54.50;;;;;;5070259;28;20025;-75
2021/04/07 07:53:59;;;;;;;4.35;1.65;;;6.20;51.60;;;;;;5063556;28;20056;-74
2021/04/07 07:56:50;;;;;;;3.58;1.88;;;6.10;51.00;;;;;;5064155;28;20033;-75
2021/04/07 07:59:34;;;;;;;5.25;2.33;;;6.10;50.60;;;;;;5067467;28;20037;-75
2021/04/07 08:02:13;;;;;;;3.15;1.77;;;6.00;52.50;;;;;;5059277;28;20029;-74
2021/04/07 08:04:50;;;;;;;5.05;1.50;;;6.10;51.00;;;;;;5059739;28;20510;-75
2021/04/07 08:07:19;;;;;;;2.83;1.30;;;6.40;50.20;;;;;;5061020;28;20025;-75
2021/04/07 08:09:47;;;;;;;3.08;1.45;;;6.40;48.00;;;;;;5064410;28;20023;-75
2021/04/07 08:12:15;;;;;;;3.58;1.75;;;6.90;50.90;;;;;;5062960;28;20032;-75
2021/04/07 08:14:46;;;;;;;6.38;1.67;;;7.00;47.90;;;;;;5061045;28;20021;-76
2021/04/07 08:17:13;;;;;;;3.95;1.65;;;6.80;48.30;;;;;;5066525;28;20038;-76
2021/04/07 08:19:40;;;;;;;7.70;1.75;;;6.40;47.60;;;;;;5065183;28;20033;-76
2021/04/07 08:22:12;;;;;;;7.50;2.63;;;7.20;51.30;;;;;;5071626;28;20132;-76
2021/04/07 08:24:40;;;;;;;2.30;1.42;;;8.00;48.90;;;;;;5071031;28;20028;-76
2021/04/07 08:27:09;;;;;;;4.22;1.63;;;8.20;47.70;;;;;;5069846;28;20417;-76
2021/04/07 08:29:40;;;;;;;2.90;1.42;;;7.90;46.80;;;;;;5071153;28;20075;-76
2021/04/07 08:32:07;;;;;;;5.45;1.95;;;8.10;48.30;;;;;;5071076;28;20017;-76
2021/04/07 08:34:34;;;;;;;5.03;1.73;;;8.30;48.20;;;;;;5071481;28;20032;-77
2021/04/07 08:37:04;;;;;;;3.95;1.88;;;8.50;47.70;;;;;;5072778;28;20020;-76
2021/04/07 08:39:45;;;;;;;9.77;1.67;;;8.70;46.60;;;;;;5072057;28;20472;-76
2021/04/07 08:42:13;;;;;;;4.10;1.65;;;8.80;46.40;;;;;;5060453;28;20614;-76
2021/04/07 08:44:50;;;;;;;6.18;1.83;;;7.80;45.70;;;;;;5064539;28;20373;-76
2021/04/07 08:47:30;;;;;;;3.10;1.65;;;8.20;47.60;;;;;;5066080;28;20119;-76
2021/04/07 08:50:07;;;;;;;4.57;1.73;;;8.10;48.40;;;;;;5062923;28;20515;-76
2021/04/07 08:52:50;;;;;;;5.95;1.33;;;8.30;46.20;;;;;;5061531;28;20166;-76
2021/04/07 08:55:26;;;;;;;6.05;2.38;;;8.20;44.40;;;;;;5066736;28;20064;-76
2021/04/07 08:58:06;;;;;;;9.02;2.42;;;8.40;44.70;;;;;;5060231;28;20056;-76
2021/04/07 09:00:36;;;;;;;2.67;1.80;;;8.40;43.10;;;;;;5065336;28;20028;-76
2021/04/07 09:03:17;;;;;;;4.43;1.60;;;8.50;46.40;;;;;;5070776;28;20033;-76
2021/04/07 09:05:46;;;;;;;3.80;1.90;;;10.70;45.40;;;;;;5066383;28;20435;-76
2021/04/07 09:08:21;;;;;;;5.27;2.70;;;13.60;37.40;;;;;;5053243;28;20044;-76
2021/04/07 09:10:57;;;;;;;7.43;2.47;;;15.30;37.20;;;;;;5070465;28;20536;-77
2021/04/07 09:13:30;;;;;;;3.55;2.05;;;18.30;33.40;;;;;;5061277;28;20021;-77
2021/04/07 09:16:01;;;;;;;7.32;2.25;;;17.30;32.80;;;;;;5062024;28;20400;-77
2021/04/07 09:18:38;;;;;;;5.20;2.35;;;18.80;32.50;;;;;;5065278;28;20060;-77
2021/04/07 09:21:16;;;;;;;16.55;3.08;;;21.10;30.80;;;;;;5059233;28;20462;-77
2021/04/07 09:23:51;;;;;;;4.18;2.10;;;21.40;28.50;;;;;;5061796;28;20099;-77
2021/04/07 09:26:19;;;;;;;5.57;2.20;;;19.70;29.00;;;;;;5065790;28;20041;-77
2021/04/07 09:28:50;;;;;;;3.70;1.90;;;18.30;31.10;;;;;;5068276;28;20020;-77
2021/04/07 09:31:25;;;;;;;6.40;2.30;;;20.40;31.50;;;;;;5068374;28;20041;-77
2021/04/07 09:33:55;;;;;;;2.63;1.85;;;21.90;30.80;;;;;;5061214;28;20025;-77
2021/04/07 09:36:30;;;;;;;5.43;2.08;;;21.80;28.70;;;;;;5064712;28;20546;-77
2021/04/07 09:38:59;;;;;;;6.82;2.00;;;21.80;30.60;;;;;;5074598;28;20385;-77
2021/04/07 09:41:29;;;;;;;4.07;2.70;;;21.50;29.40;;;;;;5068695;28;20024;-77
2021/04/07 09:44:00;;;;;;;4.15;1.90;;;20.10;28.90;;;;;;5068419;28;20286;-77
2021/04/07 09:46:28;;;;;;;5.03;2.38;;;20.70;30.10;;;;;;5066209;28;20060;-77
2021/04/07 09:49:10;;;;;;;4.60;3.00;;;22.10;30.20;;;;;;5061373;28;20385;-78
2021/04/07 09:51:49;;;;;;;4.93;2.63;;;20.40;28.70;;;;;;5061950;28;20024;-77
2021/04/07 09:54:22;;;;;;;4.45;2.63;;;21.00;28.80;;;;;;5074556;28;20024;-77
2021/04/07 09:56:49;;;;;;;3.28;2.30;;;21.70;29.20;;;;;;5072398;28;20017;-77
2021/04/07 09:59:16;;;;;;;4.82;2.30;;;23.10;28.10;;;;;;5061679;28;20028;-78
2021/04/07 10:01:43;;;;;;;3.58;2.40;;;23.50;27.90;;;;;;5066515;28;20027;-77
2021/04/07 10:04:13;;;;;;;6.13;2.92;;;22.70;28.50;;;;;;5059173;28;20031;-78
2021/04/07 10:06:39;;;;;;;5.82;2.53;;;20.90;27.50;;;;;;5058979;28;20028;-78
2021/04/07 10:09:11;;;;;;;4.65;2.55;;;18.00;28.90;;;;;;5064089;28;20416;-77
2021/04/07 10:11:42;;;;;;;4.07;2.33;;;18.00;31.00;;;;;;5072322;28;20374;-78
2021/04/07 10:14:10;;;;;;;3.92;2.40;;;21.00;31.60;;;;;;5072051;28;20043;-78
2021/04/07 10:16:42;;;;;;;6.13;3.40;;;24.40;30.10;;;;;;5072291;28;20440;-77
2021/04/07 10:19:13;;;;;;;3.95;2.67;;;25.90;30.10;;;;;;5062752;28;20295;-78
2021/04/07 10:21:45;;;;;;;4.88;2.83;;;26.70;28.80;;;;;;5060036;28;20031;-78
2021/04/07 10:24:16;;;;;;;7.15;2.00;;;25.60;27.20;;;;;;5073423;28;20040;-78
2021/04/07 10:26:45;;;;;;;5.07;2.53;;;24.60;26.60;;;;;;5069555;28;20150;-78
2021/04/07 10:29:26;;;;;;;2.90;2.58;;;24.60;26.00;;;;;;5071677;28;20108;-78
2021/04/07 10:32:00;;;;;;;2.78;2.35;;;25.40;26.60;;;;;;5071602;28;20017;-78
2021/04/07 10:34:34;;;;;;;5.78;2.15;;;26.70;27.50;;;;;;5069407;28;20134;-78
2021/04/07 10:37:03;;;;;;;3.00;2.60;;;27.30;25.90;;;;;;5077167;28;20021;-77
2021/04/07 10:39:38;;;;;;;5.53;2.95;;;27.40;27.30;;;;;;5054905;28;20033;-77
2021/04/07 10:42:14;;;;;;;3.38;2.45;;;27.10;26.30;;;;;;5071617;28;20119;-78
2021/04/07 10:44:43;;;;;;;4.88;2.70;;;27.00;26.70;;;;;;5071019;28;21175;-78
2021/04/07 10:47:18;;;;;;;5.65;3.15;;;27.10;27.10;;;;;;5073416;28;20031;-78
2021/04/07 10:49:57;;;;;;;4.97;2.88;;;27.10;25.80;;;;;;5072959;28;20036;-78
2021/04/07 10:52:38;;;;;;;3.75;2.55;;;27.40;26.40;;;;;;5065029;28;20040;-77
2021/04/07 10:55:20;;;;;;;4.40;2.97;;;26.90;25.60;;;;;;5073699;28;20036;-77
2021/04/07 10:57:48;;;;;;;6.95;3.50;;;26.50;25.40;;;;;;5067299;28;20114;-77
2021/04/07 11:00:33;;;;;;;4.25;2.75;;;26.60;26.40;;;;;;5073606;28;20044;-78
2021/04/07 11:02:59;;;;;;;4.65;2.80;;;27.20;26.40;;;;;;5076505;28;20468;-78
2021/04/07 11:05:28;;;;;;;16.52;3.38;;;28.20;25.40;;;;;;5070803;28;20017;-78
2021/04/07 11:08:04;;;;;;;5.22;2.72;;;28.90;24.80;;;;;;5072400;28;20032;-77
2021/04/07 11:10:56;;;;;;;6.57;2.80;;;29.00;23.70;;;;;;5068044;28;20434;-77
2021/04/07 11:13:24;;;;;;;8.65;3.38;;;26.30;24.10;;;;;;5061907;28;20032;-80
2021/04/07 11:15:52;;;;;;;3.05;2.60;;;28.40;25.90;;;;;;5062936;28;20040;-77
2021/04/07 11:18:29;;;;;;;5.13;2.88;;;29.60;25.40;;;;;;5068452;28;20081;-78
2021/04/07 11:20:56;;;;;;;3.92;2.47;;;29.10;23.90;;;;;;5055372;28;20029;-77
2021/04/07 11:23:23;;;;;;;4.10;3.22;;;27.10;24.90;;;;;;5072337;28;20040;-78
2021/04/07 11:25:56;;;;;;;3.42;2.83;;;26.80;24.10;;;;;;5065243;28;20395;-78
2021/04/07 11:28:24;;;;;;;3.00;2.70;;;27.30;24.40;;;;;;5060724;28;20044;-78
2021/04/07 11:41:57;;;;;;;4.95;2.75;;;32.30;25.20;;;;;;5046096;28;20025;-77
2021/04/07 11:44:34;;;;;;;4.22;3.03;;;31.50;23.70;;;;;;5050652;28;20045;-78
2021/04/07 11:47:10;;;;;;;4.60;2.90;;;31.70;25.70;;;;;;5051036;28;20025;-78
2021/04/07 11:49:38;;;;;;;3.65;2.50;;;31.50;25.50;;;;;;5041310;28;20451;-78
2021/04/07 11:52:06;;;;;;;2.83;2.58;;;30.90;23.20;;;;;;5050579;28;20567;-78
2021/04/07 11:54:34;;;;;;;5.05;3.00;;;29.90;23.20;;;;;;5050928;28;20186;-78
2021/04/07 11:57:04;;;;;;;4.05;2.92;;;29.10;23.00;;;;;;5050566;28;20124;-78
2021/04/07 11:59:32;;;;;;;4.05;3.42;;;28.70;24.80;;;;;;5048731;28;20067;-78
2021/04/07 12:02:01;;;;;;;4.30;3.05;;;30.00;25.80;;;;;;5048577;28;20508;-78
2021/04/07 12:04:29;;;;;;;3.55;2.70;;;31.50;24.10;;;;;;5032912;28;20052;-78
2021/04/07 12:06:57;;;;;;;4.18;2.70;;;30.90;24.20;;;;;;5050104;28;20025;-78
2021/04/07 12:09:25;;;;;;;17.85;4.53;;;31.20;25.30;;;;;;5043889;28;20500;-78
2021/04/07 12:11:53;;;;;;;5.22;2.55;;;31.10;22.90;;;;;;5040859;28;20025;-78
2021/04/07 12:14:23;;;;;;;5.63;2.80;;;30.80;24.50;;;;;;5038596;28;20451;-78
2021/04/07 12:16:50;;;;;;;;;;;30.40;24.00;;;;;;5071009;28;20020;-78
2021/04/07 12:19:18;;;;;;;2.67;2.47;;;31.40;25.10;;;;;;5069374;28;19912;-78
2021/04/07 12:21:44;;;;;;;4.18;2.67;;;31.70;23.90;;;;;;5068876;28;20081;-78
2021/04/07 12:24:10;;;;;;;3.40;2.60;;;31.40;23.00;;;;;;5064872;28;20025;-78
2021/04/07 12:26:37;;;;;;;4.25;2.50;;;30.40;22.90;;;;;;5068089;28;20044;-78
2021/04/07 12:29:07;;;;;;;35.85;5.18;;;30.50;24.70;;;;;;5071735;28;20036;-79
2021/04/07 12:31:34;;;;;;;6.25;2.50;;;30.70;24.60;;;;;;5071444;28;20132;-78
2021/04/07 12:34:00;;;;;;;6.95;2.60;;;31.60;24.00;;;;;;5067181;28;20520;-78
2021/04/07 12:36:28;;;;;;;4.45;2.60;;;32.30;25.90;;;;;;5070559;28;20064;-79
2021/04/07 12:38:56;;;;;;;3.63;2.25;;;32.40;24.40;;;;;;5061570;28;20550;-79
2021/04/07 12:41:30;;;;;;;4.50;2.35;;;31.20;23.10;;;;;;5068335;28;20032;-79
2021/04/07 12:43:56;;;;;;;4.70;2.55;;;30.70;22.70;;;;;;5069430;28;20483;-79
2021/04/07 12:46:22;;;;;;;4.70;3.03;;;31.30;23.40;;;;;;5071820;28;20037;-79
2021/04/07 12:48:48;;;;;;;5.88;2.47;;;31.20;24.30;;;;;;5072378;28;20035;-79
2021/04/07 12:51:20;;;;;;;3.38;2.70;;;31.20;23.90;;;;;;5058625;28;20053;-79
2021/04/07 12:54:08;;;;;;;2.75;2.55;;;30.80;24.10;;;;;;5059867;28;20020;-79
2021/04/07 12:56:38;;;;;;;3.95;2.38;;;30.20;23.10;;;;;;5055320;28;20408;-85
2021/04/07 12:59:06;;;;;;;3.65;2.38;;;30.70;24.70;;;;;;5069665;28;20032;-78
2021/04/07 13:01:33;;;;;;;3.58;2.47;;;31.00;24.10;;;;;;5072043;28;20046;-78
2021/04/07 13:04:01;;;;;;;2.45;2.25;;;31.80;24.80;;;;;;5072263;28;20052;-78
2021/04/07 13:06:28;;;;;;;5.22;2.70;;;32.40;24.70;;;;;;5070997;28;20036;-78
2021/04/07 13:08:59;;;;;;;3.60;2.25;;;32.50;24.80;;;;;;5071701;28;20056;-78
2021/04/07 13:11:30;;;;;;;3.33;2.72;;;31.90;23.40;;;;;;5071688;28;20115;-78
2021/04/07 13:13:58;;;;;;;3.75;2.30;;;30.30;23.70;;;;;;5071776;28;20480;-78
2021/04/07 13:16:29;;;;;;;67.50;6.60;;;30.80;22.40;;;;;;5071087;28;20047;-78
2021/04/07 13:18:59;;;;;;;3.95;2.40;;;30.80;26.20;;;;;;5074931;28;20116;-78